sensor_id;sensor_type;location;lat;lon;timestamp;temperature;humidity
12957;DHT22;6543;48.836;10.092;2023-05-16T00:01:48;8.10;99.90
12957;DHT22;6543;48.836;10.092;2023-05-16T00:04:15;8.10;99.90
12957;DHT22;6543;48.836;10.092;2023-05-16T00:06:43;8.80;99.90
12957;DHT22;6543;48.836;10.092;2023-05-16T00:09:09;8.00;99.90
12957;DHT22;6543;48.836;10.092;2023-05-16T00:11:36;8.00;99.90
12957;DHT22;6543;48.836;10.092;2023-05-16T00:14:03;7.90;99.90
12957;DHT22;6543;48.836;10.092;2023-05-16T00:16:30;8.00;99.90
12957;DHT22;6543;48.836;10.092;2023-05-16T00:18:58;8.10;99.90
12957;DHT22;6543;48.836;10.092;2023-05-16T00:21:25;8.10;99.90
12957;DHT22;6543;48.836;10.092;2023-05-16T00:23:52;8.10;99.90
12957;DHT22;6543;48.836;10.092;2023-05-16T00:26:19;8.00;99.90
12957;DHT22;6543;48.836;10.092;2023-05-16T00:28:47;7.90;99.90
12957;DHT22;6543;48.836;10.092;2023-05-16T00:31:14;7.70;99.90
12957;DHT22;6543;48.836;10.092;2023-05-16T00:33:40;7.80;99.90
12957;DHT22;6543;48.836;10.092;2023-05-16T00:36:09;7.80;99.90
12957;DHT22;6543;48.836;10.092;2023-05-16T00:38:36;7.60;99.90
12957;DHT22;6543;48.836;10.092;2023-05-16T00:41:03;7.80;99.90
12957;DHT22;6543;48.836;10.092;2023-05-16T00:43:30;8.00;99.90
12957;DHT22;6543;48.836;10.092;2023-05-16T00:45:56;8.00;99.90
12957;DHT22;6543;48.836;10.092;2023-05-16T00:48:25;8.00;99.90
12957;DHT22;6543;48.836;10.092;2023-05-16T00:50:52;8.00;99.90
12957;DHT22;6543;48.836;10.092;2023-05-16T00:53:21;7.80;99.90
12957;DHT22;6543;48.836;10.092;2023-05-16T00:55:49;8.40;99.90
12957;DHT22;6543;48.836;10.092;2023-05-16T00:58:17;7.70;99.90
12957;DHT22;6543;48.836;10.092;2023-05-16T01:00:44;7.60;99.90
12957;DHT22;6543;48.836;10.092;2023-05-16T01:03:12;7.60;99.90
12957;DHT22;6543;48.836;10.092;2023-05-16T01:05:39;8.70;99.90
12957;DHT22;6543;48.836;10.092;2023-05-16T01:08:06;8.40;99.90
12957;DHT22;6543;48.836;10.092;2023-05-16T01:10:38;7.60;99.90
12957;DHT22;6543;48.836;10.092;2023-05-16T01:13:14;7.70;99.90
12957;DHT22;6543;48.836;10.092;2023-05-16T01:15:47;7.70;99.90
12957;DHT22;6543;48.836;10.092;2023-05-16T01:18:23;7.60;99.90
12957;DHT22;6543;48.836;10.092;2023-05-16T01:20:55;7.60;99.90
12957;DHT22;6543;48.836;10.092;2023-05-16T01:23:35;7.60;99.90
12957;DHT22;6543;48.836;10.092;2023-05-16T01:26:17;7.60;99.90
12957;DHT22;6543;48.836;10.092;2023-05-16T01:28:47;7.60;99.90
12957;DHT22;6543;48.836;10.092;2023-05-16T01:31:14;8.30;99.90
12957;DHT22;6543;48.836;10.092;2023-05-16T01:33:41;8.30;99.90
12957;DHT22;6543;48.836;10.092;2023-05-16T01:36:14;7.70;99.90
12957;DHT22;6543;48.836;10.092;2023-05-16T01:38:47;7.70;99.90
12957;DHT22;6543;48.836;10.092;2023-05-16T01:41:21;7.70;99.90
12957;DHT22;6543;48.836;10.092;2023-05-16T01:43:54;7.70;99.90
12957;DHT22;6543;48.836;10.092;2023-05-16T01:46:25;7.60;99.90
12957;DHT22;6543;48.836;10.092;2023-05-16T01:49:00;7.70;99.90
12957;DHT22;6543;48.836;10.092;2023-05-16T01:51:31;7.70;99.90
12957;DHT22;6543;48.836;10.092;2023-05-16T01:54:04;7.70;99.90
12957;DHT22;6543;48.836;10.092;2023-05-16T01:56:32;7.60;99.90
12957;DHT22;6543;48.836;10.092;2023-05-16T01:59:00;7.60;99.90
12957;DHT22;6543;48.836;10.092;2023-05-16T02:01:29;8.30;99.90
12957;DHT22;6543;48.836;10.092;2023-05-16T02:03:56;7.60;99.90
12957;DHT22;6543;48.836;10.092;2023-05-16T02:06:23;7.60;99.90
12957;DHT22;6543;48.836;10.092;2023-05-16T02:08:50;7.70;99.90
12957;DHT22;6543;48.836;10.092;2023-05-16T02:11:17;7.70;99.90
12957;DHT22;6543;48.836;10.092;2023-05-16T02:13:45;7.70;99.90
12957;DHT22;6543;48.836;10.092;2023-05-16T02:16:12;8.00;99.90
12957;DHT22;6543;48.836;10.092;2023-05-16T02:18:39;7.80;99.90
12957;DHT22;6543;48.836;10.092;2023-05-16T02:21:06;7.70;99.90
12957;DHT22;6543;48.836;10.092;2023-05-16T02:23:33;7.80;99.90
12957;DHT22;6543;48.836;10.092;2023-05-16T02:26:00;7.80;99.90
12957;DHT22;6543;48.836;10.092;2023-05-16T02:28:27;7.80;99.90
12957;DHT22;6543;48.836;10.092;2023-05-16T02:30:58;7.70;99.90
12957;DHT22;6543;48.836;10.092;2023-05-16T02:33:25;7.60;99.90
12957;DHT22;6543;48.836;10.092;2023-05-16T02:35:53;7.50;99.90
12957;DHT22;6543;48.836;10.092;2023-05-16T02:38:20;7.50;99.90
12957;DHT22;6543;48.836;10.092;2023-05-16T02:40:47;7.50;99.90
12957;DHT22;6543;48.836;10.092;2023-05-16T02:43:14;7.40;99.90
12957;DHT22;6543;48.836;10.092;2023-05-16T02:45:40;7.40;99.90
12957;DHT22;6543;48.836;10.092;2023-05-16T02:48:09;8.20;99.90
12957;DHT22;6543;48.836;10.092;2023-05-16T02:50:36;7.20;99.90
12957;DHT22;6543;48.836;10.092;2023-05-16T02:53:04;7.30;99.90
12957;DHT22;6543;48.836;10.092;2023-05-16T02:55:31;7.50;99.90
12957;DHT22;6543;48.836;10.092;2023-05-16T02:57:58;7.40;99.90
12957;DHT22;6543;48.836;10.092;2023-05-16T03:00:25;7.60;99.90
12957;DHT22;6543;48.836;10.092;2023-05-16T03:02:52;7.30;99.90
12957;DHT22;6543;48.836;10.092;2023-05-16T03:05:20;7.40;99.90
12957;DHT22;6543;48.836;10.092;2023-05-16T03:07:47;7.30;99.90
12957;DHT22;6543;48.836;10.092;2023-05-16T03:10:14;7.30;99.90
12957;DHT22;6543;48.836;10.092;2023-05-16T03:12:41;7.30;99.90
12957;DHT22;6543;48.836;10.092;2023-05-16T03:15:09;7.30;99.90
12957;DHT22;6543;48.836;10.092;2023-05-16T03:17:35;7.20;99.90
12957;DHT22;6543;48.836;10.092;2023-05-16T03:20:03;7.40;99.90
12957;DHT22;6543;48.836;10.092;2023-05-16T03:22:34;7.50;99.90
12957;DHT22;6543;48.836;10.092;2023-05-16T03:25:01;7.80;99.90
12957;DHT22;6543;48.836;10.092;2023-05-16T03:27:28;7.40;99.90
12957;DHT22;6543;48.836;10.092;2023-05-16T03:29:55;7.30;99.90
12957;DHT22;6543;48.836;10.092;2023-05-16T03:32:22;7.40;99.90
12957;DHT22;6543;48.836;10.092;2023-05-16T03:34:49;7.50;99.90
12957;DHT22;6543;48.836;10.092;2023-05-16T03:37:16;7.40;99.90
12957;DHT22;6543;48.836;10.092;2023-05-16T03:39:44;7.40;99.90
12957;DHT22;6543;48.836;10.092;2023-05-16T03:42:11;8.40;99.90
12957;DHT22;6543;48.836;10.092;2023-05-16T03:44:38;7.50;99.90
12957;DHT22;6543;48.836;10.092;2023-05-16T03:47:05;7.40;99.90
12957;DHT22;6543;48.836;10.092;2023-05-16T03:49:32;7.40;99.90
12957;DHT22;6543;48.836;10.092;2023-05-16T03:51:58;7.60;99.90
12957;DHT22;6543;48.836;10.092;2023-05-16T03:54:26;7.60;99.90
12957;DHT22;6543;48.836;10.092;2023-05-16T03:56:54;7.70;99.90
12957;DHT22;6543;48.836;10.092;2023-05-16T03:59:21;7.70;99.90
12957;DHT22;6543;48.836;10.092;2023-05-16T04:01:49;7.70;99.90
12957;DHT22;6543;48.836;10.092;2023-05-16T04:04:16;7.70;99.90
12957;DHT22;6543;48.836;10.092;2023-05-16T04:06:42;7.70;99.90
12957;DHT22;6543;48.836;10.092;2023-05-16T04:09:09;7.90;99.90
12957;DHT22;6543;48.836;10.092;2023-05-16T04:11:36;7.90;99.90
12957;DHT22;6543;48.836;10.092;2023-05-16T04:14:05;8.00;99.90
12957;DHT22;6543;48.836;10.092;2023-05-16T04:16:32;8.10;99.90
12957;DHT22;6543;48.836;10.092;2023-05-16T04:18:59;8.20;99.90
12957;DHT22;6543;48.836;10.092;2023-05-16T04:21:26;8.20;99.90
12957;DHT22;6543;48.836;10.092;2023-05-16T04:23:53;8.30;99.90
12957;DHT22;6543;48.836;10.092;2023-05-16T04:26:19;8.40;99.90
12957;DHT22;6543;48.836;10.092;2023-05-16T04:28:47;8.40;99.90
12957;DHT22;6543;48.836;10.092;2023-05-16T04:31:15;8.30;99.90
12957;DHT22;6543;48.836;10.092;2023-05-16T04:33:42;8.50;99.90
12957;DHT22;6543;48.836;10.092;2023-05-16T04:36:09;8.40;99.90
12957;DHT22;6543;48.836;10.092;2023-05-16T04:38:35;8.40;99.90
12957;DHT22;6543;48.836;10.092;2023-05-16T04:41:02;8.50;99.90
12957;DHT22;6543;48.836;10.092;2023-05-16T04:43:29;8.50;99.90
12957;DHT22;6543;48.836;10.092;2023-05-16T04:45:56;8.50;99.90
12957;DHT22;6543;48.836;10.092;2023-05-16T04:48:25;8.60;99.90
12957;DHT22;6543;48.836;10.092;2023-05-16T04:50:52;8.70;99.90
12957;DHT22;6543;48.836;10.092;2023-05-16T04:53:19;8.70;99.90
12957;DHT22;6543;48.836;10.092;2023-05-16T04:55:45;9.30;99.90
12957;DHT22;6543;48.836;10.092;2023-05-16T04:58:13;9.60;99.90
12957;DHT22;6543;48.836;10.092;2023-05-16T05:00:40;9.00;99.90
12957;DHT22;6543;48.836;10.092;2023-05-16T05:03:07;9.00;99.90
12957;DHT22;6543;48.836;10.092;2023-05-16T05:05:35;9.00;99.90
12957;DHT22;6543;48.836;10.092;2023-05-16T05:08:02;9.10;99.90
12957;DHT22;6543;48.836;10.092;2023-05-16T05:10:29;9.40;99.90
12957;DHT22;6543;48.836;10.092;2023-05-16T05:12:56;9.20;99.90
12957;DHT22;6543;48.836;10.092;2023-05-16T05:15:23;9.40;99.90
12957;DHT22;6543;48.836;10.092;2023-05-16T05:17:50;9.50;99.90
12957;DHT22;6543;48.836;10.092;2023-05-16T05:20:17;9.70;99.90
12957;DHT22;6543;48.836;10.092;2023-05-16T05:22:45;9.70;99.90
12957;DHT22;6543;48.836;10.092;2023-05-16T05:25:12;9.80;99.90
12957;DHT22;6543;48.836;10.092;2023-05-16T05:27:39;9.90;99.90
12957;DHT22;6543;48.836;10.092;2023-05-16T05:30:07;9.90;99.90
12957;DHT22;6543;48.836;10.092;2023-05-16T05:32:34;10.00;99.90
12957;DHT22;6543;48.836;10.092;2023-05-16T05:35:01;10.10;99.90
12957;DHT22;6543;48.836;10.092;2023-05-16T05:37:28;10.20;99.90
12957;DHT22;6543;48.836;10.092;2023-05-16T05:39:57;10.40;99.90
12957;DHT22;6543;48.836;10.092;2023-05-16T05:42:23;10.70;99.90
12957;DHT22;6543;48.836;10.092;2023-05-16T05:44:50;10.70;99.90
12957;DHT22;6543;48.836;10.092;2023-05-16T05:47:17;10.80;99.90
12957;DHT22;6543;48.836;10.092;2023-05-16T05:49:44;11.10;99.90
12957;DHT22;6543;48.836;10.092;2023-05-16T05:52:11;11.20;99.90
12957;DHT22;6543;48.836;10.092;2023-05-16T05:54:38;11.90;99.90
12957;DHT22;6543;48.836;10.092;2023-05-16T05:57:06;11.10;99.90
12957;DHT22;6543;48.836;10.092;2023-05-16T05:59:33;11.50;99.90
12957;DHT22;6543;48.836;10.092;2023-05-16T06:02:00;11.30;99.90
12957;DHT22;6543;48.836;10.092;2023-05-16T06:04:27;12.00;99.90
12957;DHT22;6543;48.836;10.092;2023-05-16T06:06:54;11.60;99.90
12957;DHT22;6543;48.836;10.092;2023-05-16T06:09:20;11.70;99.90
12957;DHT22;6543;48.836;10.092;2023-05-16T06:11:48;11.60;99.90
12957;DHT22;6543;48.836;10.092;2023-05-16T06:14:16;11.50;99.90
12957;DHT22;6543;48.836;10.092;2023-05-16T06:16:43;11.60;99.90
12957;DHT22;6543;48.836;10.092;2023-05-16T06:19:10;11.90;99.90
12957;DHT22;6543;48.836;10.092;2023-05-16T06:21:40;12.10;99.90
12957;DHT22;6543;48.836;10.092;2023-05-16T06:24:07;12.10;99.90
12957;DHT22;6543;48.836;10.092;2023-05-16T06:26:35;11.80;99.90
12957;DHT22;6543;48.836;10.092;2023-05-16T06:29:02;12.00;99.90
12957;DHT22;6543;48.836;10.092;2023-05-16T06:31:30;12.50;99.90
12957;DHT22;6543;48.836;10.092;2023-05-16T06:33:57;12.90;99.90
12957;DHT22;6543;48.836;10.092;2023-05-16T06:36:24;12.40;99.90
12957;DHT22;6543;48.836;10.092;2023-05-16T06:38:51;12.30;99.90
12957;DHT22;6543;48.836;10.092;2023-05-16T06:41:17;12.10;99.90
12957;DHT22;6543;48.836;10.092;2023-05-16T06:43:44;11.70;99.90
12957;DHT22;6543;48.836;10.092;2023-05-16T06:46:11;12.00;99.90
12957;DHT22;6543;48.836;10.092;2023-05-16T06:48:39;11.30;99.90
12957;DHT22;6543;48.836;10.092;2023-05-16T06:51:06;12.40;99.90
12957;DHT22;6543;48.836;10.092;2023-05-16T06:53:33;11.70;99.90
12957;DHT22;6543;48.836;10.092;2023-05-16T06:56:00;12.00;99.90
12957;DHT22;6543;48.836;10.092;2023-05-16T06:58:27;11.80;99.90
12957;DHT22;6543;48.836;10.092;2023-05-16T07:00:54;11.80;99.90
12957;DHT22;6543;48.836;10.092;2023-05-16T07:03:20;11.50;99.90
12957;DHT22;6543;48.836;10.092;2023-05-16T07:05:49;12.00;99.90
12957;DHT22;6543;48.836;10.092;2023-05-16T07:08:17;12.00;99.90
12957;DHT22;6543;48.836;10.092;2023-05-16T07:10:44;11.90;99.90
12957;DHT22;6543;48.836;10.092;2023-05-16T07:13:11;11.80;99.90
12957;DHT22;6543;48.836;10.092;2023-05-16T07:15:38;11.80;99.90
12957;DHT22;6543;48.836;10.092;2023-05-16T07:18:05;11.90;99.90
12957;DHT22;6543;48.836;10.092;2023-05-16T07:20:32;12.20;99.90
12957;DHT22;6543;48.836;10.092;2023-05-16T07:23:00;12.30;99.90
12957;DHT22;6543;48.836;10.092;2023-05-16T07:25:27;12.20;99.90
12957;DHT22;6543;48.836;10.092;2023-05-16T07:27:54;12.50;99.90
12957;DHT22;6543;48.836;10.092;2023-05-16T07:30:21;12.90;99.90
12957;DHT22;6543;48.836;10.092;2023-05-16T07:32:48;12.90;99.90
12957;DHT22;6543;48.836;10.092;2023-05-16T07:35:15;12.80;99.90
12957;DHT22;6543;48.836;10.092;2023-05-16T07:37:42;12.90;99.90
12957;DHT22;6543;48.836;10.092;2023-05-16T07:40:11;12.30;99.90
12957;DHT22;6543;48.836;10.092;2023-05-16T07:42:38;12.90;99.90
12957;DHT22;6543;48.836;10.092;2023-05-16T07:45:06;13.70;99.90
12957;DHT22;6543;48.836;10.092;2023-05-16T07:47:34;13.40;99.90
12957;DHT22;6543;48.836;10.092;2023-05-16T07:50:01;13.30;99.90
12957;DHT22;6543;48.836;10.092;2023-05-16T07:52:28;13.40;99.90
12957;DHT22;6543;48.836;10.092;2023-05-16T07:54:54;13.30;99.90
12957;DHT22;6543;48.836;10.092;2023-05-16T07:57:24;13.10;99.90
12957;DHT22;6543;48.836;10.092;2023-05-16T07:59:52;13.20;99.90
12957;DHT22;6543;48.836;10.092;2023-05-16T08:02:19;14.10;99.90
12957;DHT22;6543;48.836;10.092;2023-05-16T08:04:46;13.70;99.90
12957;DHT22;6543;48.836;10.092;2023-05-16T08:07:13;12.40;99.90
12957;DHT22;6543;48.836;10.092;2023-05-16T08:09:40;13.00;99.90
12957;DHT22;6543;48.836;10.092;2023-05-16T08:12:08;13.00;99.90
12957;DHT22;6543;48.836;10.092;2023-05-16T08:14:36;13.00;99.90
12957;DHT22;6543;48.836;10.092;2023-05-16T08:17:04;13.20;99.90
12957;DHT22;6543;48.836;10.092;2023-05-16T08:19:30;13.00;99.90
12957;DHT22;6543;48.836;10.092;2023-05-16T08:21:58;12.80;99.90
12957;DHT22;6543;48.836;10.092;2023-05-16T08:24:25;12.50;99.90
12957;DHT22;6543;48.836;10.092;2023-05-16T08:26:52;12.50;99.90
12957;DHT22;6543;48.836;10.092;2023-05-16T08:29:19;13.30;99.90
12957;DHT22;6543;48.836;10.092;2023-05-16T08:31:48;12.00;99.90
12957;DHT22;6543;48.836;10.092;2023-05-16T08:34:14;13.30;99.90
12957;DHT22;6543;48.836;10.092;2023-05-16T08:36:41;12.90;99.90
12957;DHT22;6543;48.836;10.092;2023-05-16T08:39:08;13.20;99.90
12957;DHT22;6543;48.836;10.092;2023-05-16T08:41:36;13.50;99.90
12957;DHT22;6543;48.836;10.092;2023-05-16T08:44:03;13.20;99.90
12957;DHT22;6543;48.836;10.092;2023-05-16T08:46:32;13.10;99.90
12957;DHT22;6543;48.836;10.092;2023-05-16T08:49:01;13.00;99.90
12957;DHT22;6543;48.836;10.092;2023-05-16T08:51:32;12.80;99.90
12957;DHT22;6543;48.836;10.092;2023-05-16T08:54:03;12.70;99.90
12957;DHT22;6543;48.836;10.092;2023-05-16T08:56:33;12.90;99.90
12957;DHT22;6543;48.836;10.092;2023-05-16T08:59:01;12.50;99.90
12957;DHT22;6543;48.836;10.092;2023-05-16T09:01:29;12.90;99.90
12957;DHT22;6543;48.836;10.092;2023-05-16T09:03:57;12.90;99.90
12957;DHT22;6543;48.836;10.092;2023-05-16T09:06:26;12.60;99.90
12957;DHT22;6543;48.836;10.092;2023-05-16T09:08:53;12.70;99.90
12957;DHT22;6543;48.836;10.092;2023-05-16T09:11:20;11.00;99.90
12957;DHT22;6543;48.836;10.092;2023-05-16T09:13:47;13.10;99.90
12957;DHT22;6543;48.836;10.092;2023-05-16T09:16:15;13.20;99.90
12957;DHT22;6543;48.836;10.092;2023-05-16T09:18:45;12.90;99.90
12957;DHT22;6543;48.836;10.092;2023-05-16T09:21:13;13.20;99.90
12957;DHT22;6543;48.836;10.092;2023-05-16T09:23:43;12.50;99.90
12957;DHT22;6543;48.836;10.092;2023-05-16T09:26:11;13.10;99.90
12957;DHT22;6543;48.836;10.092;2023-05-16T09:28:38;13.70;99.90
12957;DHT22;6543;48.836;10.092;2023-05-16T09:31:19;12.90;99.90
12957;DHT22;6543;48.836;10.092;2023-05-16T09:33:54;13.20;99.90
12957;DHT22;6543;48.836;10.092;2023-05-16T09:36:21;13.10;99.90
12957;DHT22;6543;48.836;10.092;2023-05-16T09:38:50;12.90;99.90
12957;DHT22;6543;48.836;10.092;2023-05-16T09:41:17;13.80;99.90
12957;DHT22;6543;48.836;10.092;2023-05-16T09:43:44;13.30;99.90
12957;DHT22;6543;48.836;10.092;2023-05-16T09:46:12;13.00;99.90
12957;DHT22;6543;48.836;10.092;2023-05-16T09:48:40;12.60;99.90
12957;DHT22;6543;48.836;10.092;2023-05-16T09:51:08;12.40;99.90
12957;DHT22;6543;48.836;10.092;2023-05-16T09:53:37;12.60;99.90
12957;DHT22;6543;48.836;10.092;2023-05-16T09:56:07;12.60;99.90
12957;DHT22;6543;48.836;10.092;2023-05-16T09:58:37;12.80;99.90
12957;DHT22;6543;48.836;10.092;2023-05-16T10:01:05;12.50;99.90
12957;DHT22;6543;48.836;10.092;2023-05-16T10:03:34;12.50;99.90
12957;DHT22;6543;48.836;10.092;2023-05-16T10:06:01;12.50;99.90
12957;DHT22;6543;48.836;10.092;2023-05-16T10:08:31;12.40;99.90
12957;DHT22;6543;48.836;10.092;2023-05-16T10:11:02;12.60;99.90
12957;DHT22;6543;48.836;10.092;2023-05-16T10:13:32;12.60;99.90
12957;DHT22;6543;48.836;10.092;2023-05-16T10:16:04;12.70;99.90
12957;DHT22;6543;48.836;10.092;2023-05-16T10:18:32;12.60;99.90
12957;DHT22;6543;48.836;10.092;2023-05-16T10:21:04;12.80;99.90
12957;DHT22;6543;48.836;10.092;2023-05-16T10:23:32;12.70;99.90
12957;DHT22;6543;48.836;10.092;2023-05-16T10:26:02;12.50;99.90
12957;DHT22;6543;48.836;10.092;2023-05-16T10:28:32;12.60;99.90
12957;DHT22;6543;48.836;10.092;2023-05-16T10:31:00;12.40;99.90
12957;DHT22;6543;48.836;10.092;2023-05-16T10:33:28;12.20;99.90
12957;DHT22;6543;48.836;10.092;2023-05-16T10:35:55;12.50;99.90
12957;DHT22;6543;48.836;10.092;2023-05-16T10:38:22;11.80;99.90
12957;DHT22;6543;48.836;10.092;2023-05-16T10:40:50;11.90;99.90
12957;DHT22;6543;48.836;10.092;2023-05-16T10:43:24;11.90;99.90
12957;DHT22;6543;48.836;10.092;2023-05-16T10:45:58;12.00;99.90
12957;DHT22;6543;48.836;10.092;2023-05-16T10:48:29;11.70;99.90
12957;DHT22;6543;48.836;10.092;2023-05-16T10:50:56;12.30;99.90
12957;DHT22;6543;48.836;10.092;2023-05-16T10:53:31;11.50;99.90
12957;DHT22;6543;48.836;10.092;2023-05-16T10:56:06;11.90;99.90
12957;DHT22;6543;48.836;10.092;2023-05-16T10:58:41;11.90;99.90
12957;DHT22;6543;48.836;10.092;2023-05-16T11:01:18;12.00;99.90
12957;DHT22;6543;48.836;10.092;2023-05-16T11:04:03;12.40;99.90
12957;DHT22;6543;48.836;10.092;2023-05-16T11:06:31;12.30;99.90
12957;DHT22;6543;48.836;10.092;2023-05-16T11:09:06;12.20;99.90
12957;DHT22;6543;48.836;10.092;2023-05-16T11:11:39;12.50;99.90
12957;DHT22;6543;48.836;10.092;2023-05-16T11:14:06;12.80;99.90
12957;DHT22;6543;48.836;10.092;2023-05-16T11:16:35;12.60;99.90
12957;DHT22;6543;48.836;10.092;2023-05-16T11:19:05;12.70;99.90
12957;DHT22;6543;48.836;10.092;2023-05-16T11:22:09;13.70;99.90
12957;DHT22;6543;48.836;10.092;2023-05-16T11:24:38;13.30;99.90
12957;DHT22;6543;48.836;10.092;2023-05-16T11:27:05;13.50;99.90
12957;DHT22;6543;48.836;10.092;2023-05-16T11:29:34;13.40;99.90
12957;DHT22;6543;48.836;10.092;2023-05-16T11:32:04;13.50;99.90
12957;DHT22;6543;48.836;10.092;2023-05-16T11:34:34;13.40;99.90
12957;DHT22;6543;48.836;10.092;2023-05-16T11:37:02;13.40;99.90
12957;DHT22;6543;48.836;10.092;2023-05-16T11:39:30;12.90;99.90
12957;DHT22;6543;48.836;10.092;2023-05-16T11:41:59;13.90;99.90
12957;DHT22;6543;48.836;10.092;2023-05-16T11:44:31;13.60;99.90
12957;DHT22;6543;48.836;10.092;2023-05-16T11:46:59;13.80;99.90
12957;DHT22;6543;48.836;10.092;2023-05-16T11:49:28;14.30;99.90
12957;DHT22;6543;48.836;10.092;2023-05-16T11:51:55;13.40;99.90
12957;DHT22;6543;48.836;10.092;2023-05-16T11:54:23;13.60;99.90
12957;DHT22;6543;48.836;10.092;2023-05-16T11:56:50;13.70;99.90
12957;DHT22;6543;48.836;10.092;2023-05-16T11:59:18;13.70;99.90
12957;DHT22;6543;48.836;10.092;2023-05-16T12:01:46;13.70;99.90
12957;DHT22;6543;48.836;10.092;2023-05-16T12:04:16;13.90;99.90
12957;DHT22;6543;48.836;10.092;2023-05-16T12:06:57;14.00;99.90
12957;DHT22;6543;48.836;10.092;2023-05-16T12:09:25;13.80;99.90
12957;DHT22;6543;48.836;10.092;2023-05-16T12:11:52;13.70;99.90
12957;DHT22;6543;48.836;10.092;2023-05-16T12:14:19;14.00;99.90
12957;DHT22;6543;48.836;10.092;2023-05-16T12:16:46;15.00;99.90
12957;DHT22;6543;48.836;10.092;2023-05-16T12:19:14;13.40;99.90
12957;DHT22;6543;48.836;10.092;2023-05-16T12:21:41;13.90;99.90
12957;DHT22;6543;48.836;10.092;2023-05-16T12:24:11;14.00;99.90
12957;DHT22;6543;48.836;10.092;2023-05-16T12:26:39;13.80;99.90
12957;DHT22;6543;48.836;10.092;2023-05-16T12:29:07;14.00;99.90
12957;DHT22;6543;48.836;10.092;2023-05-16T12:31:37;14.00;99.90
12957;DHT22;6543;48.836;10.092;2023-05-16T12:34:04;14.10;99.90
12957;DHT22;6543;48.836;10.092;2023-05-16T12:36:31;13.80;99.90
12957;DHT22;6543;48.836;10.092;2023-05-16T12:38:59;13.70;99.90
12957;DHT22;6543;48.836;10.092;2023-05-16T12:41:30;14.40;99.90
12957;DHT22;6543;48.836;10.092;2023-05-16T12:44:10;13.90;99.90
12957;DHT22;6543;48.836;10.092;2023-05-16T12:46:40;13.90;99.90
12957;DHT22;6543;48.836;10.092;2023-05-16T12:49:07;14.60;99.90
12957;DHT22;6543;48.836;10.092;2023-05-16T12:51:34;14.20;99.90
12957;DHT22;6543;48.836;10.092;2023-05-16T12:54:07;14.10;99.90
12957;DHT22;6543;48.836;10.092;2023-05-16T12:56:36;13.70;99.90
12957;DHT22;6543;48.836;10.092;2023-05-16T12:59:03;13.90;99.90
12957;DHT22;6543;48.836;10.092;2023-05-16T13:01:30;13.70;99.90
12957;DHT22;6543;48.836;10.092;2023-05-16T13:03:57;13.80;99.90
12957;DHT22;6543;48.836;10.092;2023-05-16T13:06:24;13.80;99.90
12957;DHT22;6543;48.836;10.092;2023-05-16T13:08:52;14.10;99.90
12957;DHT22;6543;48.836;10.092;2023-05-16T13:11:19;13.80;99.90
12957;DHT22;6543;48.836;10.092;2023-05-16T13:13:47;13.90;99.90
12957;DHT22;6543;48.836;10.092;2023-05-16T13:16:14;14.00;99.90
12957;DHT22;6543;48.836;10.092;2023-05-16T13:18:41;14.20;99.90
12957;DHT22;6543;48.836;10.092;2023-05-16T13:21:08;14.00;99.90
12957;DHT22;6543;48.836;10.092;2023-05-16T13:23:35;14.10;99.90
12957;DHT22;6543;48.836;10.092;2023-05-16T13:26:02;14.30;99.90
12957;DHT22;6543;48.836;10.092;2023-05-16T13:28:30;14.40;99.90
12957;DHT22;6543;48.836;10.092;2023-05-16T13:30:59;14.50;99.90
12957;DHT22;6543;48.836;10.092;2023-05-16T13:33:26;14.10;99.90
12957;DHT22;6543;48.836;10.092;2023-05-16T13:35:55;14.40;99.90
12957;DHT22;6543;48.836;10.092;2023-05-16T13:38:22;14.30;99.90
12957;DHT22;6543;48.836;10.092;2023-05-16T13:40:48;14.30;99.90
12957;DHT22;6543;48.836;10.092;2023-05-16T13:43:16;13.40;99.90
12957;DHT22;6543;48.836;10.092;2023-05-16T13:45:43;13.90;99.90
12957;DHT22;6543;48.836;10.092;2023-05-16T13:48:11;13.90;99.90
12957;DHT22;6543;48.836;10.092;2023-05-16T13:50:38;13.90;99.90
12957;DHT22;6543;48.836;10.092;2023-05-16T13:53:05;14.20;99.90
12957;DHT22;6543;48.836;10.092;2023-05-16T13:55:33;14.00;99.90
12957;DHT22;6543;48.836;10.092;2023-05-16T13:58:00;13.70;99.90
12957;DHT22;6543;48.836;10.092;2023-05-16T14:00:27;13.50;99.90
12957;DHT22;6543;48.836;10.092;2023-05-16T14:02:54;13.10;99.90
12957;DHT22;6543;48.836;10.092;2023-05-16T14:05:23;13.50;99.90
12957;DHT22;6543;48.836;10.092;2023-05-16T14:07:50;13.80;99.90
12957;DHT22;6543;48.836;10.092;2023-05-16T14:10:17;14.10;99.90
12957;DHT22;6543;48.836;10.092;2023-05-16T14:12:44;14.20;99.90
12957;DHT22;6543;48.836;10.092;2023-05-16T14:15:11;13.30;99.90
12957;DHT22;6543;48.836;10.092;2023-05-16T14:17:38;14.30;99.90
12957;DHT22;6543;48.836;10.092;2023-05-16T14:20:06;13.00;99.90
12957;DHT22;6543;48.836;10.092;2023-05-16T14:22:37;13.20;99.90
12957;DHT22;6543;48.836;10.092;2023-05-16T14:25:12;13.20;99.90
12957;DHT22;6543;48.836;10.092;2023-05-16T14:27:48;13.00;99.90
12957;DHT22;6543;48.836;10.092;2023-05-16T14:30:16;12.80;99.90
12957;DHT22;6543;48.836;10.092;2023-05-16T14:32:42;12.90;99.90
12957;DHT22;6543;48.836;10.092;2023-05-16T14:35:09;13.30;99.90
12957;DHT22;6543;48.836;10.092;2023-05-16T14:37:38;13.30;99.90
12957;DHT22;6543;48.836;10.092;2023-05-16T14:40:06;12.90;99.90
12957;DHT22;6543;48.836;10.092;2023-05-16T14:42:33;12.80;99.90
12957;DHT22;6543;48.836;10.092;2023-05-16T14:45:00;13.10;99.90
12957;DHT22;6543;48.836;10.092;2023-05-16T14:47:27;12.60;99.90
12957;DHT22;6543;48.836;10.092;2023-05-16T14:49:55;13.80;99.90
12957;DHT22;6543;48.836;10.092;2023-05-16T14:52:22;12.80;99.90
12957;DHT22;6543;48.836;10.092;2023-05-16T14:54:51;13.70;99.90
12957;DHT22;6543;48.836;10.092;2023-05-16T14:57:17;14.60;99.90
12957;DHT22;6543;48.836;10.092;2023-05-16T14:59:44;12.90;99.90
12957;DHT22;6543;48.836;10.092;2023-05-16T15:02:12;12.90;99.90
12957;DHT22;6543;48.836;10.092;2023-05-16T15:04:40;12.90;99.90
12957;DHT22;6543;48.836;10.092;2023-05-16T15:07:06;13.30;99.90
12957;DHT22;6543;48.836;10.092;2023-05-16T15:09:33;14.10;99.90
12957;DHT22;6543;48.836;10.092;2023-05-16T15:12:03;12.80;99.90
12957;DHT22;6543;48.836;10.092;2023-05-16T15:14:30;13.00;99.90
12957;DHT22;6543;48.836;10.092;2023-05-16T15:16:57;13.30;99.90
12957;DHT22;6543;48.836;10.092;2023-05-16T15:19:24;12.80;99.90
12957;DHT22;6543;48.836;10.092;2023-05-16T15:21:51;13.10;99.90
12957;DHT22;6543;48.836;10.092;2023-05-16T15:24:18;12.80;99.90
12957;DHT22;6543;48.836;10.092;2023-05-16T15:26:45;12.80;99.90
12957;DHT22;6543;48.836;10.092;2023-05-16T15:29:14;12.40;99.90
12957;DHT22;6543;48.836;10.092;2023-05-16T15:31:41;12.90;99.90
12957;DHT22;6543;48.836;10.092;2023-05-16T15:34:08;12.40;99.90
12957;DHT22;6543;48.836;10.092;2023-05-16T15:36:36;12.60;99.90
12957;DHT22;6543;48.836;10.092;2023-05-16T15:39:03;13.10;99.90
12957;DHT22;6543;48.836;10.092;2023-05-16T15:41:30;12.10;99.90